Aérodrome :
LOGIN :

S'inscrire | Disclaimer

   EN    FR    IT 

 










Légende :    VFR   VFR Marginal   IFR   IFR Intensif   IFR Très Intensif
Visi : 
Plafond : 
>= 8 km
>= 3000ft
5 à 8 km
1000 à 3000 ft
1500m à 5 km
500 à 1000 ft
800 à 1500m
200 à 500 ft
< 800m
< 200 ft
Symboles :   Orages  Brouillard  Fortes neiges  Fortes précipitations  Vent > 20 kt
SIGMETs :   Divers  Orages  Givrage  Turbulence  Onde Orograph.  Cendres Volcan.






- Altitude de l'aérodrome : 209 ft
- Code IATA : CLY


LFKC - Calvi

DERNIER METAR :
  • 122000Z AUTO 18003KT CAVOK 20/14 Q1019 NOSIG

METARs EXPIRÉS :
  • 121930Z AUTO 17003KT CAVOK 21/14 Q1019 NOSIG
  • 121900Z AUTO 22002KT CAVOK 23/15 Q1019 NOSIG
  • 121830Z AUTO 05003KT CAVOK 24/16 Q1019 NOSIG
  • 121800Z AUTO 03006KT CAVOK 25/15 Q1019 NOSIG

TAF TAF LFKC
Valide du 12 à 15h jusqu'au 13 à 15h UTC


121400Z 1215/1315 35010KT CAVOK TX31/1312Z TN17/1303Z
BECMG 1219/1220 18004KT
BECMG 1310/1312 22010KT
ATIS : +33 4 95 65 82 49



MET'MAP, la Météo Aéronautique d'un coup d'oeil ! - Copyright ORBIFLY Décembre 2007 - Disclaimer

ORBIFLY MET'MAP TEAM :

Programmation & Développement : Alexandra Zaïnal
Sur une idée originale de : Baudouin d'Aumeries
Assistance à la programmation : Marc-Olivier Méhu
Soutien technique & logistique : Manuel Goepfert

Contact : metmap@orbifly.com




SOURCES & CREDITS :

   NOAA